Impacts METAR Board
IDs:

KSLC - Salt Lake City Intl, UT, US

Updated at: 2000 UTC 08 Feb 2023
Potential Impact None Slight Moderate High
Time 08/08Z 08/09Z 08/10Z 08/11Z 08/12Z 08/13Z 08/14Z 08/15Z 08/16Z 08/17Z 08/18Z 08/19Z 08/20Z
Temp31 32 31 32 31 30 30 30 33 34 36 41 44
Dewpt24 25 25 24 24 23 24 24 24 24 25 26 25
Altim30.35 30.32 30.31 30.30 30.31 30.29 30.30 30.31 30.30 30.30 30.29 30.28 30.25
VIS10 10 10 10 10 10 9 8 10 10 10 10 10
CIG150 100 200 200 80 -- 80 75 75 70 65 70 70
CoverBKNBKNBKNBKNBKNSCTBKNBKNBKNBKNBKNBKNBKN
FltCatVFRVFRVFRVFRVFRVFRVFRVFRVFRVFRVFRVFRVFR
WX--------------------------
WDir1601601501501201301301301701701401400
WSpd6 8 6 5 5 5 6 4 5 9 7 8 5
WGst-- -- -- -- -- -- -- -- -- -- -- -- --
Raw hourly METARs
KSLC 080754Z 16006KT 10SM BKN150 M01/M04 A3035 RMK AO2 SLP275 T10061044
KSLC 080854Z 16008KT 10SM BKN100 00/M04 A3032 RMK AO2 SLP274 T00001039 58012
KSLC 080954Z 15006KT 10SM SCT080 BKN200 M01/M04 A3031 RMK AO2 SLP262 T10061039
KSLC 081054Z 15005KT 10SM FEW080 BKN200 00/M04 A3030 RMK AO2 SLP267 T00001044
KSLC 081154Z 12005KT 10SM BKN080 M01/M04 A3031 RMK AO2 SLP264 T10061044 10006 21006 55003
KSLC 081254Z 13005KT 10SM SCT090 M01/M05 A3029 RMK AO2 SLP271 T10111050
KSLC 081354Z 13006KT 9SM BKN080 M01/M04 A3030 RMK AO2 SLP275 T10111044
KSLC 081454Z 13004KT 8SM BKN075 M01/M04 A3031 RMK AO2 SLP278 T10111044 55002
KSLC 081554Z 17005KT 10SM BKN075 01/M04 A3030 RMK AO2 SLP276 T00061044
KSLC 081654Z 17009KT 10SM BKN070 01/M04 A3030 RMK AO2 SLP273 T00111044
KSLC 081754Z 14007KT 10SM BKN065 02/M04 A3029 RMK AO2 SLP269 T00221039 10022 21011 58004
KSLC 081854Z 14008KT 10SM BKN070 05/M03 A3028 RMK AO2 SLP251 T00501033
KSLC 081954Z VRB05KT 10SM BKN070 BKN200 07/M04 A3025 RMK AO2 SLP247 T00671039



Page loaded:  20:25 UTC  |   12:25 PM Pacific  |   01:25 PM Mountain  |   02:25 PM Central  |   03:25 PM Eastern

 

ADVISORIES

FORECASTS

FORECASTS

OBSERVATIONS

USER TOOLS

ABOUT US